createdAt,value
2018-03-08T00:02:12.653Z,12.68
2018-03-08T00:07:16.503Z,13.17
2018-03-08T00:12:20.715Z,13.03
2018-03-08T00:17:25.167Z,12.40
2018-03-08T00:22:29.770Z,13.07
2018-03-08T00:27:32.859Z,12.60
2018-03-08T00:32:35.943Z,11.97
2018-03-08T00:37:39.803Z,11.87
2018-03-08T00:42:42.895Z,12.10
2018-03-08T00:47:45.998Z,11.37
2018-03-08T00:52:50.422Z,10.10
2018-03-08T00:57:54.426Z,9.40
2018-03-08T01:02:57.525Z,9.27
2018-03-08T01:08:01.393Z,7.77
2018-03-08T01:13:05.597Z,8.57
2018-03-08T01:18:10.041Z,7.80
2018-03-08T01:23:14.640Z,7.43
2018-03-08T01:28:17.732Z,7.20
2018-03-08T01:33:21.975Z,6.30
2018-03-08T01:38:26.440Z,5.70
2018-03-08T01:43:30.649Z,5.30
2018-03-08T01:48:34.136Z,5.87
2018-03-08T01:53:37.988Z,6.53
2018-03-08T01:58:41.081Z,6.00
2018-03-08T02:03:44.948Z,5.80
2018-03-08T02:08:48.796Z,5.23
2018-03-08T02:13:53.260Z,4.97
2018-03-08T02:18:56.341Z,4.87
2018-03-08T02:24:00.820Z,4.80
2018-03-08T02:29:04.348Z,5.10
2018-03-08T02:34:07.836Z,4.20
2018-03-08T02:39:10.937Z,3.90
2018-03-08T02:44:14.413Z,3.97
2018-03-08T02:49:18.904Z,3.77
2018-03-08T02:54:21.968Z,3.30
2018-03-08T02:59:26.189Z,3.23
2018-03-08T03:04:29.684Z,3.57
2018-03-08T03:09:33.919Z,3.50
2018-03-08T03:14:38.397Z,3.27
2018-03-08T03:19:41.901Z,3.10
2018-03-08T03:24:46.134Z,3.37
2018-03-08T03:29:50.559Z,3.90
2018-03-08T03:34:54.032Z,3.70
2018-03-08T03:39:58.780Z,4.17
2018-03-08T03:45:02.992Z,3.90
2018-03-08T03:50:07.605Z,3.67
2018-03-08T03:55:10.674Z,3.80
2018-03-08T04:00:13.764Z,4.13
2018-03-08T04:05:18.208Z,4.03
2018-03-08T04:10:22.779Z,4.05
2018-03-08T04:15:25.867Z,4.70
2018-03-08T04:20:29.715Z,5.13
2018-03-08T04:25:33.564Z,5.33
2018-03-08T04:30:37.778Z,5.27
2018-03-08T04:35:42.203Z,5.97
2018-03-08T04:40:45.688Z,5.03
2018-03-08T04:45:48.767Z,5.40
2018-03-08T04:50:53.364Z,5.80
2018-03-08T04:55:57.591Z,5.30
2018-03-08T05:01:02.027Z,5.60
2018-03-08T05:06:06.467Z,6.20
2018-03-08T05:11:10.691Z,5.20
2018-03-08T05:16:13.767Z,5.67
2018-03-08T05:21:18.711Z,6.37
2018-03-08T05:26:22.559Z,6.13
2018-03-08T05:31:26.411Z,6.73
2018-03-08T05:36:29.528Z,6.13
2018-03-08T05:41:32.607Z,7.37
2018-03-08T05:46:35.714Z,7.17
2018-03-08T05:51:41.015Z,7.00
2018-03-08T05:56:45.837Z,7.53
2018-03-08T06:01:50.089Z,8.10
2018-03-08T06:06:53.165Z,8.17
2018-03-08T06:11:56.252Z,8.30
2018-03-08T06:16:59.352Z,8.67
2018-03-08T06:22:05.721Z,9.10
2018-03-08T06:27:09.658Z,9.77
2018-03-08T06:32:13.512Z,9.40
2018-03-08T06:37:18.745Z,10.10
2018-03-08T06:42:22.599Z,9.60
2018-03-08T06:47:25.704Z,9.37
2018-03-08T06:52:29.163Z,8.33
2018-03-08T06:57:32.241Z,8.50
2018-03-08T07:02:35.320Z,7.20
2018-03-08T07:07:38.793Z,7.12
2018-03-08T07:12:42.274Z,7.50
2018-03-08T07:17:46.111Z,6.73
2018-03-08T07:22:49.180Z,7.07
2018-03-08T07:27:52.688Z,6.90
2018-03-08T07:32:56.155Z,6.53
2018-03-08T07:37:59.685Z,7.20
2018-03-08T07:43:04.271Z,7.20
2018-03-08T07:48:07.349Z,6.87
2018-03-08T07:53:13.273Z,7.20
2018-03-08T07:58:16.765Z,6.70
2018-03-08T08:03:20.248Z,7.37
2018-03-08T08:08:36.430Z,7.63
2018-03-08T08:13:39.508Z,7.63
2018-03-08T08:18:43.356Z,7.40
2018-03-08T08:23:47.579Z,7.67
2018-03-08T08:28:50.880Z,6.40
2018-03-08T08:33:54.367Z,6.30
2018-03-08T08:38:58.599Z,6.17
2018-03-08T08:44:02.084Z,6.60
2018-03-08T08:49:06.531Z,6.70
2018-03-08T08:54:10.968Z,6.50
2018-03-08T08:59:15.568Z,6.27
2018-03-08T09:04:20.009Z,7.13
2018-03-08T09:09:23.090Z,7.40
2018-03-08T09:14:27.539Z,7.63
2018-03-08T09:19:31.382Z,7.40
2018-03-08T09:24:34.504Z,7.37
2018-03-08T09:29:37.587Z,6.95
2018-03-08T09:34:40.692Z,6.17
2018-03-08T09:39:44.173Z,5.80
2018-03-08T09:44:48.621Z,5.93
2018-03-08T09:49:53.799Z,5.60
2018-03-08T09:54:58.642Z,5.00
2018-03-08T10:00:02.495Z,5.00
2018-03-08T10:05:06.732Z,4.50
2018-03-08T10:10:11.163Z,3.77
2018-03-08T10:15:15.029Z,3.97
2018-03-08T10:20:19.479Z,3.80
2018-03-08T10:25:23.707Z,3.65
2018-03-08T10:30:27.932Z,3.63
2018-03-08T10:40:43.686Z,3.40
2018-03-08T10:45:43.799Z,2.37
2018-03-08T10:50:46.903Z,2.13
2018-03-08T10:55:49.991Z,2.03
2018-03-08T11:00:54.996Z,2.10
2018-03-08T11:05:59.423Z,1.80
2018-03-08T11:11:02.919Z,2.28
2018-03-08T11:16:06.403Z,1.93
2018-03-08T11:21:09.879Z,2.03
2018-03-08T11:26:13.351Z,1.90
2018-03-08T11:31:17.782Z,2.00
2018-03-08T11:36:22.384Z,1.90
2018-03-08T11:41:26.619Z,2.10
2018-03-08T11:46:31.058Z,1.80
2018-03-08T11:51:35.613Z,2.20
2018-03-08T11:56:38.686Z,1.70
2018-03-08T12:01:41.775Z,1.70
2018-03-08T12:06:45.204Z,1.70
2018-03-08T12:11:48.283Z,1.60
2018-03-08T12:16:52.168Z,1.70
2018-03-08T12:21:55.248Z,1.67
2018-03-08T12:26:59.086Z,1.60
2018-03-08T12:32:02.555Z,1.70
2018-03-08T12:37:06.653Z,1.62
2018-03-08T12:42:10.140Z,1.67
2018-03-08T12:47:14.588Z,1.97
2018-03-08T12:52:19.047Z,1.63
2018-03-08T12:57:23.295Z,1.73
2018-03-08T13:02:27.731Z,1.80
2018-03-08T13:07:31.580Z,1.60
2018-03-08T13:12:35.443Z,1.80
2018-03-08T13:17:38.527Z,1.80
2018-03-08T13:22:42.387Z,1.70
2018-03-08T13:27:45.891Z,1.70
2018-03-08T13:32:49.356Z,1.70
2018-03-08T13:37:54.532Z,2.27
2018-03-08T13:42:57.628Z,1.80
2018-03-08T13:48:01.516Z,1.80
2018-03-08T13:53:05.600Z,1.77
2018-03-08T13:58:09.440Z,1.90
2018-03-08T14:03:13.228Z,2.00
2018-03-08T14:08:17.429Z,1.77
2018-03-08T14:13:20.520Z,2.03
2018-03-08T14:18:25.061Z,2.60
2018-03-08T14:23:29.664Z,1.80
2018-03-08T14:28:33.516Z,1.60
2018-03-08T14:33:36.620Z,1.80
2018-03-08T14:38:41.049Z,1.50
2018-03-08T14:43:44.166Z,1.90
2018-03-08T14:48:48.604Z,1.77
2018-03-08T14:53:53.042Z,2.17
2018-03-08T14:58:57.095Z,1.80
2018-03-08T15:04:00.927Z,1.97
2018-03-08T15:09:04.088Z,2.03
2018-03-08T15:14:07.552Z,2.30
2018-03-08T15:19:12.044Z,1.93
2018-03-08T15:24:15.897Z,2.10
2018-03-08T15:29:18.982Z,2.00
2018-03-08T15:34:22.065Z,1.70
2018-03-08T15:39:26.709Z,1.87
2018-03-08T15:44:31.169Z,2.00
2018-03-08T15:49:35.616Z,2.00
2018-03-08T15:54:39.505Z,2.23
2018-03-08T15:59:43.904Z,2.20
2018-03-08T16:04:48.344Z,2.10
2018-03-08T16:10:29.236Z,2.73
2018-03-08T16:15:33.856Z,3.20
2018-03-08T16:20:36.944Z,3.37
2018-03-08T16:25:40.026Z,3.03
2018-03-08T16:30:46.289Z,2.20
2018-03-08T16:35:50.742Z,1.50
2018-03-08T16:40:55.167Z,1.43
2018-03-08T16:45:59.604Z,1.50
2018-03-08T16:51:04.057Z,1.40
2018-03-08T16:56:07.141Z,2.30
2018-03-08T17:01:11.591Z,1.70
2018-03-08T17:06:16.077Z,1.47
2018-03-08T17:11:20.687Z,1.50
2018-03-08T17:16:25.167Z,1.50
2018-03-08T17:21:30.083Z,1.43
2018-03-08T17:26:33.592Z,1.70
2018-03-08T17:31:38.037Z,1.80
2018-03-08T17:36:41.889Z,1.40
2018-03-08T17:41:45.005Z,1.80
2018-03-08T17:46:48.097Z,1.30
2018-03-08T17:51:52.540Z,1.50
2018-03-08T17:56:57.112Z,1.80
2018-03-08T18:02:01.576Z,1.90
2018-03-08T18:07:06.936Z,2.17
2018-03-08T18:12:10.391Z,2.10
2018-03-08T18:17:13.483Z,2.00
2018-03-08T18:22:16.559Z,2.30
2018-03-08T18:27:20.045Z,2.30
2018-03-08T18:32:24.645Z,2.10
2018-03-08T18:37:28.872Z,2.60
2018-03-08T18:42:32.735Z,3.70
2018-03-08T18:47:37.887Z,2.50
2018-03-08T18:52:41.210Z,2.30
2018-03-08T18:57:44.263Z,2.50
2018-03-08T19:02:47.628Z,2.70
2018-03-08T19:07:52.065Z,2.70
2018-03-08T19:12:55.145Z,2.60
2018-03-08T19:17:58.220Z,2.77
2018-03-08T19:23:03.175Z,3.00
2018-03-08T19:28:07.780Z,2.57
2018-03-08T19:33:12.202Z,2.60
2018-03-08T19:38:15.308Z,3.27
2018-03-08T19:43:19.922Z,2.97
2018-03-08T19:48:24.599Z,2.60
2018-03-08T19:53:28.120Z,2.60
2018-03-08T19:58:32.736Z,2.70
2018-03-08T20:03:37.008Z,2.75
2018-03-08T20:08:40.890Z,2.83
2018-03-08T20:13:44.742Z,3.27
2018-03-08T20:18:49.586Z,2.87
2018-03-08T20:23:54.212Z,2.70
2018-03-08T20:28:58.813Z,3.27
2018-03-08T20:34:03.100Z,2.83
2018-03-08T20:39:06.169Z,2.90
2018-03-08T20:44:10.601Z,3.30
2018-03-08T20:49:14.108Z,2.83
2018-03-08T20:54:17.168Z,3.20
2018-03-08T20:59:21.058Z,2.80
2018-03-08T21:04:24.143Z,3.17
2018-03-08T21:09:28.066Z,2.93
2018-03-08T21:14:31.352Z,3.40
2018-03-08T21:19:36.278Z,3.30
2018-03-08T21:24:40.124Z,5.47
2018-03-08T21:29:44.551Z,3.67
2018-03-08T21:34:47.619Z,3.27
2018-03-08T21:39:52.043Z,3.47
2018-03-08T21:44:55.912Z,3.40
2018-03-08T21:49:59.371Z,3.70
2018-03-08T21:55:03.787Z,3.03
2018-03-08T22:00:07.296Z,3.93
2018-03-08T22:05:11.735Z,4.13
2018-03-08T22:10:16.840Z,3.75
2018-03-08T22:15:19.907Z,3.60
2018-03-08T22:20:22.988Z,3.63
2018-03-08T22:25:27.231Z,3.53
2018-03-08T22:30:30.350Z,3.50
2018-03-08T22:35:33.434Z,3.73
2018-03-08T22:45:45.288Z,3.27
2018-03-08T22:50:49.499Z,3.33
2018-03-08T22:55:52.620Z,3.23
2018-03-08T23:00:57.045Z,3.80
2018-03-08T23:06:00.137Z,3.30
2018-03-08T23:11:03.214Z,3.67
2018-03-08T23:16:06.312Z,3.47
2018-03-08T23:21:09.399Z,3.40
2018-03-08T23:26:13.818Z,3.50
2018-03-08T23:31:16.900Z,2.83
2018-03-08T23:36:19.987Z,2.93
2018-03-08T23:41:24.435Z,3.12
2018-03-08T23:46:27.512Z,3.00
2018-03-08T23:51:31.008Z,3.13
2018-03-08T23:56:35.436Z,3.40
